createdAt,value
2019-03-03T00:01:01.920Z,95656.85
2019-03-03T00:03:29.500Z,95644.16
2019-03-03T00:05:56.941Z,95645.45
2019-03-03T00:08:24.772Z,95648.43
2019-03-03T00:10:52.349Z,95649.86
2019-03-03T00:13:19.829Z,95655.48
2019-03-03T00:15:47.293Z,95652.12
2019-03-03T00:18:14.789Z,95641.19
2019-03-03T00:20:42.224Z,95638.42
2019-03-03T00:23:09.669Z,95634.79
2019-03-03T00:25:37.344Z,95640.87
2019-03-03T00:28:04.950Z,95646.05
2019-03-03T00:30:32.540Z,95642.48
2019-03-03T00:32:59.991Z,95646.27
2019-03-03T00:35:27.498Z,95652.06
2019-03-03T00:38:06.252Z,95654.66
2019-03-03T00:41:02.297Z,95660.42
2019-03-03T00:43:37.992Z,95646.05
2019-03-03T00:46:23.594Z,95640.22
2019-03-03T00:49:04.479Z,95636.53
2019-03-03T00:51:54.355Z,95638.55
2019-03-03T00:54:59.849Z,95631.31
2019-03-03T00:57:49.567Z,95630.79
2019-03-03T01:00:40.094Z,95635.91
2019-03-03T01:03:13.415Z,95633.95
2019-03-03T01:06:12.560Z,95642.96
2019-03-03T01:09:08.579Z,95637.52
2019-03-03T01:11:51.277Z,95636.74
2019-03-03T01:14:29.597Z,95636.73
2019-03-03T01:17:19.287Z,95635.57
2019-03-03T01:20:05.856Z,95636.80
2019-03-03T01:22:55.674Z,95639.08
2019-03-03T01:25:23.201Z,95633.84
2019-03-03T01:27:50.618Z,95628.84
2019-03-03T01:30:18.192Z,95630.20
2019-03-03T01:32:45.658Z,95633.04
2019-03-03T01:35:13.118Z,95630.08
2019-03-03T01:37:40.736Z,95617.58
2019-03-03T01:40:08.537Z,95621.16
2019-03-03T01:42:36.068Z,95610.92
2019-03-03T01:45:04.336Z,95601.28
2019-03-03T01:47:31.863Z,95609.68
2019-03-03T01:49:59.318Z,95616.05
2019-03-03T01:52:26.912Z,95607.38
2019-03-03T01:54:54.361Z,95612.20
2019-03-03T01:57:21.807Z,95599.02
2019-03-03T01:59:49.295Z,95602.06
2019-03-03T02:02:16.848Z,95595.97
2019-03-03T02:04:44.367Z,95590.01
2019-03-03T02:07:11.937Z,95599.16
2019-03-03T02:09:39.419Z,95592.79
2019-03-03T02:12:06.912Z,95588.73
2019-03-03T02:14:34.406Z,95590.73
2019-03-03T02:17:02.482Z,95592.54
2019-03-03T02:19:30.077Z,95588.91
2019-03-03T02:21:57.604Z,95589.42
2019-03-03T02:24:25.087Z,95592.48
2019-03-03T02:26:52.942Z,95582.33
2019-03-03T02:29:20.437Z,95581.42
2019-03-03T02:31:47.949Z,95583.42
2019-03-03T02:34:15.419Z,95580.84
2019-03-03T02:36:43.049Z,95583.35
2019-03-03T02:39:15.659Z,95579.61
2019-03-03T02:41:43.099Z,95579.48
2019-03-03T02:44:10.599Z,95578.69
2019-03-03T02:46:38.055Z,95575.93
2019-03-03T02:49:05.496Z,95579.02
2019-03-03T02:51:32.968Z,95575.66
2019-03-03T02:54:00.465Z,95576.05
2019-03-03T02:56:27.942Z,95568.55
2019-03-03T02:58:55.385Z,95564.16
2019-03-03T03:01:27.075Z,95565.20
2019-03-03T03:03:54.549Z,95564.41
2019-03-03T03:06:41.513Z,95563.05
2019-03-03T03:09:12.209Z,95563.17
2019-03-03T03:11:55.755Z,95561.92
2019-03-03T03:14:42.012Z,95561.40
2019-03-03T03:17:38.216Z,95555.69
2019-03-03T03:20:24.799Z,95554.61
2019-03-03T03:23:06.461Z,95551.89
2019-03-03T03:25:49.920Z,95552.02
2019-03-03T03:28:26.987Z,95547.73
2019-03-03T03:31:22.989Z,95551.59
2019-03-03T03:33:58.458Z,95550.96
2019-03-03T03:36:39.522Z,95544.53
2019-03-03T03:39:38.579Z,95548.70
2019-03-03T03:42:18.037Z,95540.87
2019-03-03T03:45:13.925Z,95541.30
2019-03-03T03:47:59.508Z,95548.88
2019-03-03T03:50:41.346Z,95545.33
2019-03-03T03:53:27.200Z,95549.63
2019-03-03T03:56:16.809Z,95548.98
2019-03-03T03:59:00.538Z,95546.46
2019-03-03T04:02:05.390Z,95557.81
2019-03-03T04:04:39.369Z,95559.75
2019-03-03T04:07:14.560Z,95556.95
2019-03-03T04:09:46.499Z,95553.41
2019-03-03T04:12:36.286Z,95556.01
2019-03-03T04:15:10.080Z,95550.00
2019-03-03T04:17:51.760Z,95549.92
2019-03-03T04:20:54.007Z,95548.30
2019-03-03T04:23:48.018Z,95545.66
2019-03-03T04:26:33.762Z,95544.80
2019-03-03T04:29:19.602Z,95542.41
2019-03-03T04:32:01.147Z,95539.83
2019-03-03T04:34:45.318Z,95543.56
2019-03-03T04:37:21.987Z,95540.06
2019-03-03T04:40:12.017Z,95542.27
2019-03-03T04:42:47.097Z,95537.33
2019-03-03T04:45:22.388Z,95532.25
2019-03-03T04:48:08.243Z,95539.17
2019-03-03T04:50:55.284Z,95546.28
2019-03-03T04:53:45.231Z,95560.38
2019-03-03T04:56:30.956Z,95554.31
2019-03-03T04:59:23.749Z,95554.08
2019-03-03T05:02:07.463Z,95564.45
2019-03-03T05:04:56.481Z,95564.80
2019-03-03T05:07:52.765Z,95556.13
2019-03-03T05:10:30.909Z,95557.42
2019-03-03T05:13:26.888Z,95558.13
2019-03-03T05:16:12.723Z,95551.45
2019-03-03T05:18:48.701Z,95552.64
2019-03-03T05:21:16.157Z,95562.01
2019-03-03T05:23:43.639Z,95561.16
2019-03-03T05:26:11.116Z,95560.12
2019-03-03T05:28:38.596Z,95554.56
2019-03-03T05:31:06.071Z,95549.41
2019-03-03T05:33:33.532Z,95548.80
2019-03-03T05:36:00.980Z,95539.57
2019-03-03T05:38:28.432Z,95548.34
2019-03-03T05:40:55.912Z,95546.66
2019-03-03T05:43:23.422Z,95548.70
2019-03-03T05:45:50.856Z,95557.75
2019-03-03T05:48:18.316Z,95553.83
2019-03-03T05:50:46.016Z,95558.76
2019-03-03T05:53:13.447Z,95563.23
2019-03-03T05:55:40.912Z,95563.82
2019-03-03T05:58:08.356Z,95569.23
2019-03-03T06:00:35.814Z,95564.75
2019-03-03T06:03:03.369Z,95565.88
2019-03-03T06:05:30.821Z,95571.10
2019-03-03T06:07:58.257Z,95574.30
2019-03-03T06:10:25.736Z,95586.94
2019-03-03T06:12:53.240Z,95592.80
2019-03-03T06:15:20.712Z,95595.33
2019-03-03T06:17:48.156Z,95601.64
2019-03-03T06:20:15.622Z,95597.47
2019-03-03T06:22:43.051Z,95595.91
2019-03-03T06:25:10.619Z,95592.98
2019-03-03T06:27:38.137Z,95593.73
2019-03-03T06:30:07.438Z,95596.38
2019-03-03T06:32:34.888Z,95587.42
2019-03-03T06:35:02.471Z,95579.82
2019-03-03T06:37:29.890Z,95580.77
2019-03-03T06:39:57.400Z,95585.14
2019-03-03T06:42:24.897Z,95582.53
2019-03-03T06:44:52.337Z,95580.28
2019-03-03T06:47:19.796Z,95580.57
2019-03-03T06:49:47.257Z,95583.27
2019-03-03T06:52:14.711Z,95574.48
2019-03-03T06:54:42.197Z,95578.57
2019-03-03T06:57:09.718Z,95571.97
2019-03-03T06:59:37.164Z,95569.83
2019-03-03T07:02:04.613Z,95557.30
2019-03-03T07:04:32.056Z,95559.95
2019-03-03T07:06:59.512Z,95567.20
2019-03-03T07:09:26.977Z,95570.06
2019-03-03T07:11:54.437Z,95572.22
2019-03-03T07:14:21.911Z,95559.89
2019-03-03T07:16:49.379Z,95568.10
2019-03-03T07:19:16.829Z,95571.83
2019-03-03T07:21:44.323Z,95576.02
2019-03-03T07:24:11.791Z,95580.66
2019-03-03T07:26:39.276Z,95577.86
2019-03-03T07:29:06.763Z,95582.63
2019-03-03T07:31:34.255Z,95575.57
2019-03-03T07:34:02.897Z,95588.99
2019-03-03T07:36:30.320Z,95588.39
2019-03-03T07:38:57.863Z,95584.38
2019-03-03T07:41:25.338Z,95573.58
2019-03-03T07:43:52.804Z,95575.67
2019-03-03T07:46:20.266Z,95570.81
2019-03-03T07:48:47.777Z,95567.05
2019-03-03T07:51:15.277Z,95567.66
2019-03-03T07:53:42.740Z,95559.30
2019-03-03T07:56:10.203Z,95572.16
2019-03-03T07:58:37.687Z,95572.05
2019-03-03T08:01:05.121Z,95569.09
2019-03-03T08:03:32.723Z,95574.11
2019-03-03T08:06:00.317Z,95566.59
2019-03-03T08:08:27.818Z,95562.99
2019-03-03T08:10:55.253Z,95556.86
2019-03-03T08:13:22.739Z,95560.62
2019-03-03T08:15:50.221Z,95558.23
2019-03-03T08:18:17.728Z,95568.09
2019-03-03T08:20:45.358Z,95568.42
2019-03-03T08:23:12.852Z,95561.36
2019-03-03T08:25:40.337Z,95563.55
2019-03-03T08:28:07.861Z,95562.08
2019-03-03T08:30:35.439Z,95560.78
2019-03-03T08:33:03.018Z,95556.74
2019-03-03T08:35:30.525Z,95549.07
2019-03-03T08:37:59.880Z,95546.62
2019-03-03T08:40:27.359Z,95547.95
2019-03-03T08:43:23.450Z,95543.34
2019-03-03T08:46:19.746Z,95535.01
2019-03-03T08:48:57.658Z,95526.19
2019-03-03T08:51:45.683Z,95527.98
2019-03-03T08:54:31.017Z,95520.86
2019-03-03T08:57:15.812Z,95515.08
2019-03-03T09:00:20.849Z,95500.77
2019-03-03T09:03:17.202Z,95503.51
2019-03-03T09:06:07.151Z,95501.80
2019-03-03T09:08:52.266Z,95496.31
2019-03-03T09:11:31.074Z,95509.31
2019-03-03T09:14:17.487Z,95501.41
2019-03-03T09:17:14.947Z,95499.01
2019-03-03T09:20:04.890Z,95490.41
2019-03-03T09:22:51.885Z,95492.12
2019-03-03T09:25:48.061Z,95486.55
2019-03-03T09:28:35.090Z,95479.48
2019-03-03T09:31:20.694Z,95477.14
2019-03-03T09:33:56.053Z,95469.70
2019-03-03T09:36:37.298Z,95465.72
2019-03-03T09:39:28.766Z,95458.39
2019-03-03T09:42:05.396Z,95454.82
2019-03-03T09:45:07.730Z,95446.58
2019-03-03T09:47:44.777Z,95442.55
2019-03-03T09:50:23.263Z,95445.01
2019-03-03T09:53:08.787Z,95436.52
2019-03-03T09:55:53.518Z,95436.26
2019-03-03T09:58:40.596Z,95434.48
2019-03-03T10:01:19.572Z,95422.52
2019-03-03T10:04:12.632Z,95412.91
2019-03-03T10:06:57.866Z,95413.41
2019-03-03T10:09:47.932Z,95413.83
2019-03-03T10:12:37.659Z,95408.31
2019-03-03T10:15:25.959Z,95401.39
2019-03-03T10:18:11.748Z,95385.63
2019-03-03T10:21:11.329Z,95388.82
2019-03-03T10:24:10.334Z,95382.77
2019-03-03T10:26:48.437Z,95378.62
2019-03-03T10:29:53.811Z,95373.30
2019-03-03T10:32:39.369Z,95365.07
2019-03-03T10:35:22.162Z,95361.70
2019-03-03T10:38:08.209Z,95357.82
2019-03-03T10:40:54.402Z,95356.14
2019-03-03T10:43:47.645Z,95351.41
2019-03-03T10:46:34.867Z,95343.61
2019-03-03T10:49:09.533Z,95341.34
2019-03-03T10:51:55.863Z,95333.22
2019-03-03T10:54:46.027Z,95324.28
2019-03-03T10:57:42.182Z,95323.58
2019-03-03T11:00:32.257Z,95322.63
2019-03-03T11:03:17.927Z,95318.49
2019-03-03T11:06:01.939Z,95316.15
2019-03-03T11:08:58.217Z,95323.96
2019-03-03T11:11:44.411Z,95319.95
2019-03-03T11:14:22.480Z,95312.75
2019-03-03T11:17:12.778Z,95310.80
2019-03-03T11:19:54.888Z,95298.31
2019-03-03T11:22:48.388Z,95298.58
2019-03-03T11:25:34.145Z,95297.27
2019-03-03T11:28:29.323Z,95289.66
2019-03-03T11:31:16.759Z,95280.11
2019-03-03T11:33:55.974Z,95282.72
2019-03-03T11:36:30.197Z,95270.48
2019-03-03T11:39:26.072Z,95274.66
2019-03-03T11:42:19.815Z,95262.84
2019-03-03T11:44:55.509Z,95256.20
2019-03-03T11:47:42.910Z,95255.44
2019-03-03T11:50:28.893Z,95259.92
2019-03-03T11:53:22.339Z,95246.58
2019-03-03T11:56:15.865Z,95247.84
2019-03-03T11:59:01.571Z,95236.23
2019-03-03T12:02:01.132Z,95234.48
2019-03-03T12:04:47.255Z,95230.53
2019-03-03T12:07:40.162Z,95226.09
2019-03-03T12:10:27.851Z,95215.30
2019-03-03T12:13:21.319Z,95209.03
2019-03-03T12:16:07.448Z,95204.08
2019-03-03T12:18:53.614Z,95201.13
2019-03-03T12:21:39.894Z,95194.05
2019-03-03T12:24:14.645Z,95191.80
2019-03-03T12:26:54.872Z,95187.91
2019-03-03T12:29:36.149Z,95182.53
2019-03-03T12:32:21.931Z,95181.97
2019-03-03T12:35:16.506Z,95182.13
2019-03-03T12:38:12.437Z,95167.52
2019-03-03T12:41:11.611Z,95166.83
2019-03-03T12:44:11.063Z,95169.63
2019-03-03T12:47:01.255Z,95163.98
2019-03-03T12:49:45.435Z,95163.48
2019-03-03T12:52:20.979Z,95163.33
2019-03-03T12:55:07.221Z,95151.76
2019-03-03T12:57:48.357Z,95149.09
2019-03-03T13:00:38.357Z,95154.37
2019-03-03T13:03:34.755Z,95148.16
2019-03-03T13:06:26.431Z,95145.50
2019-03-03T13:09:19.684Z,95137.61
2019-03-03T13:11:57.027Z,95128.88
2019-03-03T13:14:33.078Z,95122.20
2019-03-03T13:17:17.862Z,95114.20
2019-03-03T13:20:03.759Z,95106.16
2019-03-03T13:22:42.666Z,95106.30
2019-03-03T13:25:22.375Z,95099.66
2019-03-03T13:28:09.830Z,95103.06
2019-03-03T13:30:55.821Z,95095.09
2019-03-03T13:33:43.275Z,95092.59
2019-03-03T13:36:25.597Z,95078.23
2019-03-03T13:39:06.952Z,95080.22
2019-03-03T13:41:42.044Z,95080.00
2019-03-03T13:44:10.011Z,95073.78
2019-03-03T13:46:38.454Z,95071.44
2019-03-03T13:49:06.443Z,95065.36
2019-03-03T13:51:34.574Z,95071.85
2019-03-03T13:54:02.620Z,95068.72
2019-03-03T13:56:31.071Z,95066.63
2019-03-03T13:58:59.066Z,95061.27
2019-03-03T14:01:27.127Z,95057.17
2019-03-03T14:03:55.189Z,95057.61
2019-03-03T14:06:23.258Z,95056.41
2019-03-03T14:08:51.498Z,95049.56
2019-03-03T14:11:27.222Z,95043.92
2019-03-03T14:13:55.258Z,95036.97
2019-03-03T14:16:23.181Z,95044.84
2019-03-03T14:18:51.220Z,95026.45
2019-03-03T14:21:19.314Z,95038.96
2019-03-03T14:23:47.326Z,95038.52
2019-03-03T14:26:15.571Z,95034.38
2019-03-03T14:28:43.518Z,95032.58
2019-03-03T14:31:11.568Z,95025.98
2019-03-03T14:33:39.564Z,95023.58
2019-03-03T14:36:07.596Z,95023.44
2019-03-03T14:38:35.988Z,95028.96
2019-03-03T14:41:04.007Z,95026.09
2019-03-03T14:43:32.015Z,95019.30
2019-03-03T14:46:00.007Z,95014.41
2019-03-03T14:48:28.050Z,95014.03
2019-03-03T14:50:56.013Z,95009.94
2019-03-03T14:53:24.181Z,94999.24
2019-03-03T14:55:52.202Z,95007.94
2019-03-03T14:58:21.936Z,95000.13
2019-03-03T15:00:49.965Z,94997.69
2019-03-03T15:03:17.980Z,94998.47
2019-03-03T15:05:46.117Z,95000.70
2019-03-03T15:08:14.241Z,95006.64
2019-03-03T15:10:42.251Z,95004.30
2019-03-03T15:13:10.304Z,94999.34
2019-03-03T15:15:38.497Z,95004.50
2019-03-03T15:18:06.834Z,95005.28
2019-03-03T15:20:34.949Z,95006.23
2019-03-03T15:23:02.992Z,94999.29
2019-03-03T15:25:31.150Z,94999.67
2019-03-03T15:27:59.174Z,94996.30
2019-03-03T15:30:27.256Z,94993.47
2019-03-03T15:32:55.282Z,94987.98
2019-03-03T15:35:24.333Z,94988.16
2019-03-03T15:37:52.346Z,94984.87
2019-03-03T15:40:20.462Z,94979.50
2019-03-03T15:42:48.683Z,94980.85
2019-03-03T15:45:18.793Z,94974.22
2019-03-03T15:47:46.991Z,94976.16
2019-03-03T15:50:16.343Z,94973.84
2019-03-03T15:52:44.426Z,94969.05
2019-03-03T15:55:13.170Z,94963.24
2019-03-03T15:57:41.803Z,94950.88
2019-03-03T16:00:16.520Z,94958.24
2019-03-03T16:02:44.787Z,94954.30
2019-03-03T16:05:12.982Z,94960.80
2019-03-03T16:07:41.285Z,94953.55
2019-03-03T16:10:10.447Z,94951.75
2019-03-03T16:12:38.563Z,94952.58
2019-03-03T16:15:08.089Z,94944.93
2019-03-03T16:17:36.231Z,94950.68
2019-03-03T16:20:04.948Z,94950.66
2019-03-03T16:22:35.390Z,94945.95
2019-03-03T16:25:03.659Z,94946.65
2019-03-03T16:27:32.415Z,94942.11
2019-03-03T16:30:00.803Z,94941.88
2019-03-03T16:32:28.941Z,94942.46
2019-03-03T16:34:57.905Z,94940.13
2019-03-03T16:37:26.380Z,94939.73
2019-03-03T16:39:54.522Z,94942.39
2019-03-03T16:42:23.838Z,94946.84
2019-03-03T16:44:52.498Z,94943.99
2019-03-03T16:47:20.951Z,94941.13
2019-03-03T16:49:49.046Z,94935.80
2019-03-03T16:52:17.293Z,94935.48
2019-03-03T16:54:45.491Z,94945.09
2019-03-03T16:57:13.766Z,94949.74
2019-03-03T16:59:41.818Z,94953.72
2019-03-03T17:02:09.923Z,94957.58
2019-03-03T17:04:38.042Z,94954.56
2019-03-03T17:07:06.231Z,94948.15
2019-03-03T17:09:34.434Z,94948.16
2019-03-03T17:12:02.533Z,94952.72
2019-03-03T17:14:30.774Z,94952.52
2019-03-03T17:17:00.413Z,94952.48
2019-03-03T17:19:28.563Z,94949.48
2019-03-03T17:21:56.972Z,94959.96
2019-03-03T17:24:26.441Z,94957.11
2019-03-03T17:26:54.606Z,94955.05
2019-03-03T17:29:22.853Z,94953.11
2019-03-03T17:31:51.095Z,94949.69
2019-03-03T17:34:20.179Z,94952.41
2019-03-03T17:36:50.221Z,94950.67
2019-03-03T17:39:18.337Z,94963.50
2019-03-03T17:41:46.491Z,94960.78
2019-03-03T17:44:14.562Z,94948.30
2019-03-03T17:46:42.665Z,94951.25
2019-03-03T17:49:10.746Z,94946.76
2019-03-03T17:51:38.806Z,94945.50
2019-03-03T17:54:06.855Z,94939.84
2019-03-03T17:56:35.264Z,94939.70
2019-03-03T17:59:04.790Z,94945.79
2019-03-03T18:01:33.601Z,94947.13
2019-03-03T18:04:01.892Z,94942.77
2019-03-03T18:06:38.559Z,94943.30
2019-03-03T18:09:00.612Z,94948.06
2019-03-03T18:11:28.769Z,94948.81
2019-03-03T18:13:58.356Z,94952.12
2019-03-03T18:16:26.418Z,94948.89
2019-03-03T18:18:54.547Z,94942.66
2019-03-03T18:21:23.898Z,94945.26
2019-03-03T18:23:52.036Z,94949.06
2019-03-03T18:26:20.606Z,94951.11
2019-03-03T18:28:48.811Z,94956.53
2019-03-03T18:31:20.213Z,94956.64
2019-03-03T18:33:49.958Z,94950.45
2019-03-03T18:36:18.234Z,94948.42
2019-03-03T18:38:46.306Z,94952.25
2019-03-03T18:41:14.444Z,94944.22
2019-03-03T18:43:42.546Z,94958.59
2019-03-03T18:46:11.067Z,94960.82
2019-03-03T18:48:39.243Z,94949.16
2019-03-03T18:51:08.612Z,94944.77
2019-03-03T18:53:39.337Z,94947.47
2019-03-03T18:56:09.647Z,94951.23
2019-03-03T18:58:37.771Z,94958.18
2019-03-03T19:01:06.117Z,94957.59
2019-03-03T19:03:34.578Z,94959.41
2019-03-03T19:06:03.431Z,94956.88
2019-03-03T19:08:31.529Z,94939.64
2019-03-03T19:11:00.398Z,94899.48
2019-03-03T19:13:28.652Z,94886.93
2019-03-03T19:15:57.712Z,94917.14
2019-03-03T19:18:27.059Z,94925.44
2019-03-03T19:20:55.269Z,94919.13
2019-03-03T19:23:23.394Z,94926.36
2019-03-03T19:25:51.608Z,94932.61
2019-03-03T19:28:19.781Z,94920.48
2019-03-03T19:30:47.884Z,94912.70
2019-03-03T19:33:25.316Z,94906.43
2019-03-03T19:35:55.693Z,94903.51
2019-03-03T19:38:23.813Z,94905.80
2019-03-03T19:40:51.933Z,94903.94
2019-03-03T19:43:21.349Z,94895.36
2019-03-03T19:45:49.651Z,94899.55
2019-03-03T19:48:17.833Z,94903.38
2019-03-03T19:50:47.317Z,94901.71
2019-03-03T19:53:15.414Z,94905.94
2019-03-03T19:55:43.991Z,94907.16
2019-03-03T19:58:12.172Z,94906.27
2019-03-03T20:00:42.464Z,94906.50
2019-03-03T20:03:10.618Z,94913.73
2019-03-03T20:05:40.085Z,94908.12
2019-03-03T20:08:09.449Z,94908.56
2019-03-03T20:10:39.546Z,94904.52
2019-03-03T20:13:07.620Z,94910.03
2019-03-03T20:15:37.036Z,94916.03
2019-03-03T20:18:25.719Z,94916.98
2019-03-03T20:20:54.054Z,94908.48
2019-03-03T20:23:22.156Z,94915.20
2019-03-03T20:25:53.107Z,94922.19
2019-03-03T20:28:21.786Z,94917.44
2019-03-03T20:30:50.757Z,94913.07
2019-03-03T20:33:19.046Z,94906.88
2019-03-03T20:35:47.164Z,94902.75
2019-03-03T20:38:15.279Z,94895.89
2019-03-03T20:40:43.406Z,94902.13
2019-03-03T20:43:11.471Z,94898.49
2019-03-03T20:45:40.766Z,94893.67
2019-03-03T20:48:08.820Z,94893.71
2019-03-03T20:50:36.930Z,94887.48
2019-03-03T20:53:05.133Z,94888.52
2019-03-03T20:55:33.416Z,94902.60
2019-03-03T20:58:07.962Z,94897.24
2019-03-03T21:00:36.783Z,94892.78
2019-03-03T21:03:04.804Z,94896.11
2019-03-03T21:05:33.223Z,94901.39
2019-03-03T21:08:01.265Z,94896.55
2019-03-03T21:10:29.660Z,94891.94
2019-03-03T21:12:58.807Z,94884.89
2019-03-03T21:15:26.864Z,94883.13
2019-03-03T21:17:55.304Z,94884.90
2019-03-03T21:20:23.637Z,94891.42
2019-03-03T21:22:51.697Z,94892.98
2019-03-03T21:25:20.782Z,94884.47
2019-03-03T21:27:49.112Z,94882.33
2019-03-03T21:30:19.060Z,94888.45
2019-03-03T21:32:47.303Z,94895.48
2019-03-03T21:35:15.500Z,94887.13
2019-03-03T21:37:43.469Z,94893.08
2019-03-03T21:40:12.657Z,94894.75
2019-03-03T21:42:40.613Z,94889.65
2019-03-03T21:45:09.860Z,94889.28
2019-03-03T21:47:37.972Z,94888.09
2019-03-03T21:50:07.735Z,94889.17
2019-03-03T21:52:35.730Z,94897.80
2019-03-03T21:55:04.760Z,94896.61
2019-03-03T21:57:32.729Z,94890.22
2019-03-03T22:00:00.410Z,94901.59
2019-03-03T22:02:28.312Z,94889.38
2019-03-03T22:04:55.958Z,94888.95
2019-03-03T22:07:26.075Z,94889.13
2019-03-03T22:09:53.698Z,94890.19
2019-03-03T22:12:21.265Z,94892.16
2019-03-03T22:14:48.810Z,94886.57
2019-03-03T22:17:16.279Z,94884.97
2019-03-03T22:19:43.749Z,94889.00
2019-03-03T22:22:11.239Z,94887.50
2019-03-03T22:24:38.685Z,94874.81
2019-03-03T22:27:06.143Z,94878.42
2019-03-03T22:29:33.702Z,94864.06
2019-03-03T22:32:01.146Z,94879.82
2019-03-03T22:34:28.618Z,94881.46
2019-03-03T22:36:56.149Z,94875.30
2019-03-03T22:39:23.668Z,94876.59
2019-03-03T22:41:51.117Z,94865.98
2019-03-03T22:44:18.594Z,94876.12
2019-03-03T22:46:46.024Z,94875.20
2019-03-03T22:49:13.527Z,94871.41
2019-03-03T22:51:41.018Z,94863.80
2019-03-03T22:54:08.460Z,94856.95
2019-03-03T22:56:35.960Z,94864.83
2019-03-03T22:59:03.642Z,94866.03
2019-03-03T23:01:37.819Z,94867.89
2019-03-03T23:04:11.613Z,94862.33
2019-03-03T23:06:55.900Z,94861.29
2019-03-03T23:10:26.558Z,94858.34
2019-03-03T23:13:31.038Z,94859.64
2019-03-03T23:16:28.642Z,94853.15
2019-03-03T23:19:26.446Z,94850.16
2019-03-03T23:22:25.968Z,94853.31
2019-03-03T23:25:05.846Z,94843.51
2019-03-03T23:27:33.342Z,94844.05
2019-03-03T23:30:00.817Z,94851.48
2019-03-03T23:32:28.262Z,94852.94
2019-03-03T23:34:55.743Z,94845.18
2019-03-03T23:37:23.244Z,94844.97
2019-03-03T23:39:50.756Z,94836.09
2019-03-03T23:42:18.339Z,94828.31
2019-03-03T23:44:45.792Z,94824.98
2019-03-03T23:47:13.258Z,94830.98
2019-03-03T23:49:40.742Z,94826.64
2019-03-03T23:52:08.246Z,94823.13
2019-03-03T23:54:35.707Z,94832.19
2019-03-03T23:57:03.208Z,94830.72
2019-03-03T23:59:30.858Z,94829.34
